sensor_id;sensor_type;location;lat;lon;timestamp;temperature;humidity
16823;DHT22;8528;49.976;11.858;2024-03-29T00:01:17;3.80;99.90
16823;DHT22;8528;49.976;11.858;2024-03-29T00:03:43;3.80;99.90
16823;DHT22;8528;49.976;11.858;2024-03-29T00:06:10;3.80;99.90
16823;DHT22;8528;49.976;11.858;2024-03-29T00:08:35;3.70;99.90
16823;DHT22;8528;49.976;11.858;2024-03-29T00:11:02;3.70;99.90
16823;DHT22;8528;49.976;11.858;2024-03-29T00:13:28;3.70;99.90
16823;DHT22;8528;49.976;11.858;2024-03-29T00:15:54;3.60;99.90
16823;DHT22;8528;49.976;11.858;2024-03-29T00:18:21;3.70;99.90
16823;DHT22;8528;49.976;11.858;2024-03-29T00:20:47;3.70;99.90
16823;DHT22;8528;49.976;11.858;2024-03-29T00:23:13;3.70;99.90
16823;DHT22;8528;49.976;11.858;2024-03-29T00:25:39;3.60;99.90
16823;DHT22;8528;49.976;11.858;2024-03-29T00:28:05;3.60;99.90
16823;DHT22;8528;49.976;11.858;2024-03-29T00:30:31;3.60;99.90
16823;DHT22;8528;49.976;11.858;2024-03-29T00:32:57;3.70;99.90
16823;DHT22;8528;49.976;11.858;2024-03-29T00:35:22;3.70;99.90
16823;DHT22;8528;49.976;11.858;2024-03-29T00:37:49;3.70;99.90
16823;DHT22;8528;49.976;11.858;2024-03-29T00:40:16;3.70;99.90
16823;DHT22;8528;49.976;11.858;2024-03-29T00:42:42;3.50;99.90
16823;DHT22;8528;49.976;11.858;2024-03-29T00:45:08;3.30;99.90
16823;DHT22;8528;49.976;11.858;2024-03-29T00:47:34;3.10;99.90
16823;DHT22;8528;49.976;11.858;2024-03-29T00:50:00;2.90;99.90
16823;DHT22;8528;49.976;11.858;2024-03-29T00:52:26;2.80;99.90
16823;DHT22;8528;49.976;11.858;2024-03-29T00:54:52;2.60;99.90
16823;DHT22;8528;49.976;11.858;2024-03-29T00:57:18;2.50;99.90
16823;DHT22;8528;49.976;11.858;2024-03-29T00:59:44;2.40;99.90
16823;DHT22;8528;49.976;11.858;2024-03-29T01:02:10;2.20;99.90
16823;DHT22;8528;49.976;11.858;2024-03-29T01:04:36;2.10;99.90
16823;DHT22;8528;49.976;11.858;2024-03-29T01:07:04;2.00;99.90
16823;DHT22;8528;49.976;11.858;2024-03-29T01:09:29;1.90;99.90
16823;DHT22;8528;49.976;11.858;2024-03-29T01:11:55;1.80;99.90
16823;DHT22;8528;49.976;11.858;2024-03-29T01:14:21;1.70;99.90
16823;DHT22;8528;49.976;11.858;2024-03-29T01:16:47;1.60;99.90
16823;DHT22;8528;49.976;11.858;2024-03-29T01:19:13;1.60;99.90
16823;DHT22;8528;49.976;11.858;2024-03-29T01:21:39;1.50;99.90
16823;DHT22;8528;49.976;11.858;2024-03-29T01:24:05;1.40;99.90
16823;DHT22;8528;49.976;11.858;2024-03-29T01:26:31;1.40;99.90
16823;DHT22;8528;49.976;11.858;2024-03-29T01:28:57;1.30;99.90
16823;DHT22;8528;49.976;11.858;2024-03-29T01:31:23;1.30;99.90
16823;DHT22;8528;49.976;11.858;2024-03-29T01:33:49;1.20;99.90
16823;DHT22;8528;49.976;11.858;2024-03-29T01:36:16;1.20;99.90
16823;DHT22;8528;49.976;11.858;2024-03-29T01:38:42;1.10;99.90
16823;DHT22;8528;49.976;11.858;2024-03-29T01:41:11;1.10;99.90
16823;DHT22;8528;49.976;11.858;2024-03-29T01:43:37;1.00;99.90
16823;DHT22;8528;49.976;11.858;2024-03-29T01:46:04;1.00;99.90
16823;DHT22;8528;49.976;11.858;2024-03-29T01:48:34;0.90;99.90
16823;DHT22;8528;49.976;11.858;2024-03-29T01:51:00;0.90;99.90
16823;DHT22;8528;49.976;11.858;2024-03-29T01:53:27;0.90;99.90
16823;DHT22;8528;49.976;11.858;2024-03-29T01:55:53;0.80;99.90
16823;DHT22;8528;49.976;11.858;2024-03-29T01:58:20;0.80;99.90
16823;DHT22;8528;49.976;11.858;2024-03-29T02:00:55;0.80;99.90
16823;DHT22;8528;49.976;11.858;2024-03-29T02:03:22;0.80;99.90
16823;DHT22;8528;49.976;11.858;2024-03-29T02:05:49;0.80;99.90
16823;DHT22;8528;49.976;11.858;2024-03-29T02:08:16;0.90;99.90
16823;DHT22;8528;49.976;11.858;2024-03-29T02:10:43;0.90;99.90
16823;DHT22;8528;49.976;11.858;2024-03-29T02:13:10;1.00;99.90
16823;DHT22;8528;49.976;11.858;2024-03-29T02:15:36;1.00;99.90
16823;DHT22;8528;49.976;11.858;2024-03-29T02:18:02;1.10;99.90
16823;DHT22;8528;49.976;11.858;2024-03-29T02:20:28;1.20;99.90
16823;DHT22;8528;49.976;11.858;2024-03-29T02:23:11;1.20;99.90
16823;DHT22;8528;49.976;11.858;2024-03-29T02:25:39;1.20;99.90
16823;DHT22;8528;49.976;11.858;2024-03-29T02:28:05;1.20;99.90
16823;DHT22;8528;49.976;11.858;2024-03-29T02:30:32;1.20;99.90
16823;DHT22;8528;49.976;11.858;2024-03-29T02:32:58;1.20;99.90
16823;DHT22;8528;49.976;11.858;2024-03-29T02:35:24;1.10;99.90
16823;DHT22;8528;49.976;11.858;2024-03-29T02:37:51;1.20;99.90
16823;DHT22;8528;49.976;11.858;2024-03-29T02:40:18;1.20;99.90
16823;DHT22;8528;49.976;11.858;2024-03-29T02:42:43;1.10;99.90
16823;DHT22;8528;49.976;11.858;2024-03-29T02:45:10;1.10;99.90
16823;DHT22;8528;49.976;11.858;2024-03-29T02:47:35;1.10;99.90
16823;DHT22;8528;49.976;11.858;2024-03-29T02:50:01;1.10;99.90
16823;DHT22;8528;49.976;11.858;2024-03-29T02:52:27;1.10;99.90
16823;DHT22;8528;49.976;11.858;2024-03-29T02:54:54;1.00;99.90
16823;DHT22;8528;49.976;11.858;2024-03-29T02:57:20;1.10;99.90
16823;DHT22;8528;49.976;11.858;2024-03-29T02:59:46;1.10;99.90
16823;DHT22;8528;49.976;11.858;2024-03-29T03:02:12;1.10;99.90
16823;DHT22;8528;49.976;11.858;2024-03-29T03:04:38;1.10;99.90
16823;DHT22;8528;49.976;11.858;2024-03-29T03:07:04;1.10;99.90
16823;DHT22;8528;49.976;11.858;2024-03-29T03:09:48;1.10;99.90
16823;DHT22;8528;49.976;11.858;2024-03-29T03:12:33;1.20;99.90
16823;DHT22;8528;49.976;11.858;2024-03-29T03:14:59;1.20;99.90
16823;DHT22;8528;49.976;11.858;2024-03-29T03:17:28;1.20;99.90
16823;DHT22;8528;49.976;11.858;2024-03-29T03:19:54;1.10;99.90
16823;DHT22;8528;49.976;11.858;2024-03-29T03:22:20;1.20;99.90
16823;DHT22;8528;49.976;11.858;2024-03-29T03:24:46;1.10;99.90
16823;DHT22;8528;49.976;11.858;2024-03-29T03:27:12;1.20;99.90
16823;DHT22;8528;49.976;11.858;2024-03-29T03:29:39;1.20;99.90
16823;DHT22;8528;49.976;11.858;2024-03-29T03:32:05;1.30;99.90
16823;DHT22;8528;49.976;11.858;2024-03-29T03:34:32;1.30;99.90
16823;DHT22;8528;49.976;11.858;2024-03-29T03:36:58;1.40;99.90
16823;DHT22;8528;49.976;11.858;2024-03-29T03:39:24;1.40;99.90
16823;DHT22;8528;49.976;11.858;2024-03-29T03:41:50;1.40;99.90
16823;DHT22;8528;49.976;11.858;2024-03-29T03:44:16;1.40;99.90
16823;DHT22;8528;49.976;11.858;2024-03-29T03:46:42;1.40;99.90
16823;DHT22;8528;49.976;11.858;2024-03-29T03:49:08;1.40;99.90
16823;DHT22;8528;49.976;11.858;2024-03-29T03:51:34;1.40;99.90
16823;DHT22;8528;49.976;11.858;2024-03-29T03:54:01;1.50;99.90
16823;DHT22;8528;49.976;11.858;2024-03-29T03:56:26;1.50;99.90
16823;DHT22;8528;49.976;11.858;2024-03-29T03:58:52;1.50;99.90
16823;DHT22;8528;49.976;11.858;2024-03-29T04:01:18;1.40;99.90
16823;DHT22;8528;49.976;11.858;2024-03-29T04:03:44;1.40;99.90
16823;DHT22;8528;49.976;11.858;2024-03-29T04:06:10;1.40;99.90
16823;DHT22;8528;49.976;11.858;2024-03-29T04:08:36;1.30;99.90
16823;DHT22;8528;49.976;11.858;2024-03-29T04:11:02;1.30;99.90
16823;DHT22;8528;49.976;11.858;2024-03-29T04:13:29;1.30;99.90
16823;DHT22;8528;49.976;11.858;2024-03-29T04:16:02;1.30;99.90
16823;DHT22;8528;49.976;11.858;2024-03-29T04:18:28;1.30;99.90
16823;DHT22;8528;49.976;11.858;2024-03-29T04:20:57;1.20;99.90
16823;DHT22;8528;49.976;11.858;2024-03-29T04:23:23;1.20;99.90
16823;DHT22;8528;49.976;11.858;2024-03-29T04:25:53;1.20;99.90
16823;DHT22;8528;49.976;11.858;2024-03-29T04:28:20;1.20;99.90
16823;DHT22;8528;49.976;11.858;2024-03-29T04:33:18;1.20;99.90
16823;DHT22;8528;49.976;11.858;2024-03-29T04:36:01;1.20;99.90
16823;DHT22;8528;49.976;11.858;2024-03-29T04:38:28;1.30;99.90
16823;DHT22;8528;49.976;11.858;2024-03-29T04:40:56;1.30;99.90
16823;DHT22;8528;49.976;11.858;2024-03-29T04:43:24;1.30;99.90
16823;DHT22;8528;49.976;11.858;2024-03-29T04:45:50;1.30;99.90
16823;DHT22;8528;49.976;11.858;2024-03-29T04:48:16;1.40;99.90
16823;DHT22;8528;49.976;11.858;2024-03-29T04:50:42;1.40;99.90
16823;DHT22;8528;49.976;11.858;2024-03-29T04:53:08;1.40;99.90
16823;DHT22;8528;49.976;11.858;2024-03-29T04:55:35;1.40;99.90
16823;DHT22;8528;49.976;11.858;2024-03-29T04:58:05;1.40;99.90
16823;DHT22;8528;49.976;11.858;2024-03-29T05:00:31;1.40;99.90
16823;DHT22;8528;49.976;11.858;2024-03-29T05:02:57;1.40;99.90
16823;DHT22;8528;49.976;11.858;2024-03-29T05:05:22;1.70;99.90
16823;DHT22;8528;49.976;11.858;2024-03-29T05:07:48;1.80;99.90
16823;DHT22;8528;49.976;11.858;2024-03-29T05:10:14;1.90;99.90
16823;DHT22;8528;49.976;11.858;2024-03-29T05:12:41;1.90;99.90
16823;DHT22;8528;49.976;11.858;2024-03-29T05:15:07;1.90;99.90
16823;DHT22;8528;49.976;11.858;2024-03-29T05:17:34;1.90;99.90
16823;DHT22;8528;49.976;11.858;2024-03-29T05:19:59;1.90;99.90
16823;DHT22;8528;49.976;11.858;2024-03-29T05:22:25;2.00;99.90
16823;DHT22;8528;49.976;11.858;2024-03-29T05:24:54;2.20;99.90
16823;DHT22;8528;49.976;11.858;2024-03-29T05:27:20;2.50;99.90
16823;DHT22;8528;49.976;11.858;2024-03-29T05:29:47;2.90;99.90
16823;DHT22;8528;49.976;11.858;2024-03-29T05:32:13;3.30;99.90
16823;DHT22;8528;49.976;11.858;2024-03-29T05:34:39;3.70;99.90
16823;DHT22;8528;49.976;11.858;2024-03-29T05:37:05;4.10;99.90
16823;DHT22;8528;49.976;11.858;2024-03-29T05:39:31;4.30;99.90
16823;DHT22;8528;49.976;11.858;2024-03-29T05:41:57;4.60;99.90
16823;DHT22;8528;49.976;11.858;2024-03-29T05:44:23;4.90;99.90
16823;DHT22;8528;49.976;11.858;2024-03-29T05:46:50;5.10;99.90
16823;DHT22;8528;49.976;11.858;2024-03-29T05:49:16;5.20;99.90
16823;DHT22;8528;49.976;11.858;2024-03-29T05:51:42;5.20;99.90
16823;DHT22;8528;49.976;11.858;2024-03-29T05:54:08;5.20;99.90
16823;DHT22;8528;49.976;11.858;2024-03-29T05:56:34;5.10;99.90
16823;DHT22;8528;49.976;11.858;2024-03-29T05:59:00;5.10;99.90
16823;DHT22;8528;49.976;11.858;2024-03-29T06:01:26;5.10;99.90
16823;DHT22;8528;49.976;11.858;2024-03-29T06:03:52;5.10;99.90
16823;DHT22;8528;49.976;11.858;2024-03-29T06:06:21;5.10;99.90
16823;DHT22;8528;49.976;11.858;2024-03-29T06:08:51;5.10;99.90
16823;DHT22;8528;49.976;11.858;2024-03-29T06:11:17;5.10;99.90
16823;DHT22;8528;49.976;11.858;2024-03-29T06:13:43;5.10;99.90
16823;DHT22;8528;49.976;11.858;2024-03-29T06:16:21;5.20;99.90
16823;DHT22;8528;49.976;11.858;2024-03-29T06:19:06;5.20;99.90
16823;DHT22;8528;49.976;11.858;2024-03-29T06:21:32;5.30;99.90
16823;DHT22;8528;49.976;11.858;2024-03-29T06:24:08;5.40;99.90
16823;DHT22;8528;49.976;11.858;2024-03-29T06:26:38;5.60;99.90
16823;DHT22;8528;49.976;11.858;2024-03-29T06:29:04;5.70;99.90
16823;DHT22;8528;49.976;11.858;2024-03-29T06:31:30;5.90;99.90
16823;DHT22;8528;49.976;11.858;2024-03-29T06:33:57;6.00;99.90
16823;DHT22;8528;49.976;11.858;2024-03-29T06:36:24;6.00;99.90
16823;DHT22;8528;49.976;11.858;2024-03-29T06:38:51;5.90;99.90
16823;DHT22;8528;49.976;11.858;2024-03-29T06:41:17;5.80;99.90
16823;DHT22;8528;49.976;11.858;2024-03-29T06:43:43;5.70;99.90
16823;DHT22;8528;49.976;11.858;2024-03-29T06:46:14;5.70;99.90
16823;DHT22;8528;49.976;11.858;2024-03-29T06:48:40;5.80;99.90
16823;DHT22;8528;49.976;11.858;2024-03-29T06:51:07;5.80;99.90
16823;DHT22;8528;49.976;11.858;2024-03-29T06:53:33;5.90;99.90
16823;DHT22;8528;49.976;11.858;2024-03-29T06:56:02;6.00;99.90
16823;DHT22;8528;49.976;11.858;2024-03-29T06:58:28;6.10;99.90
16823;DHT22;8528;49.976;11.858;2024-03-29T07:00:54;6.30;99.90
16823;DHT22;8528;49.976;11.858;2024-03-29T07:03:20;6.40;99.90
16823;DHT22;8528;49.976;11.858;2024-03-29T07:05:47;6.60;99.90
16823;DHT22;8528;49.976;11.858;2024-03-29T07:08:13;6.80;99.90
16823;DHT22;8528;49.976;11.858;2024-03-29T07:10:39;7.10;99.90
16823;DHT22;8528;49.976;11.858;2024-03-29T07:13:09;7.40;99.90
16823;DHT22;8528;49.976;11.858;2024-03-29T07:15:35;7.90;99.90
16823;DHT22;8528;49.976;11.858;2024-03-29T07:18:02;8.40;99.90
16823;DHT22;8528;49.976;11.858;2024-03-29T07:20:30;8.80;99.90
16823;DHT22;8528;49.976;11.858;2024-03-29T07:22:56;9.70;99.90
16823;DHT22;8528;49.976;11.858;2024-03-29T07:25:22;10.40;99.90
16823;DHT22;8528;49.976;11.858;2024-03-29T07:27:48;11.00;99.90
16823;DHT22;8528;49.976;11.858;2024-03-29T07:30:16;11.60;99.90
16823;DHT22;8528;49.976;11.858;2024-03-29T07:32:42;11.90;98.70
16823;DHT22;8528;49.976;11.858;2024-03-29T07:35:08;12.10;97.50
16823;DHT22;8528;49.976;11.858;2024-03-29T07:37:34;12.10;96.40
16823;DHT22;8528;49.976;11.858;2024-03-29T07:40:00;11.80;96.40
16823;DHT22;8528;49.976;11.858;2024-03-29T07:42:26;11.30;95.20
16823;DHT22;8528;49.976;11.858;2024-03-29T07:44:52;10.70;97.90
16823;DHT22;8528;49.976;11.858;2024-03-29T07:47:18;10.30;99.10
16823;DHT22;8528;49.976;11.858;2024-03-29T07:49:44;9.90;99.90
16823;DHT22;8528;49.976;11.858;2024-03-29T07:52:11;10.00;99.90
16823;DHT22;8528;49.976;11.858;2024-03-29T07:54:37;10.10;99.50
16823;DHT22;8528;49.976;11.858;2024-03-29T07:57:04;10.30;99.90
16823;DHT22;8528;49.976;11.858;2024-03-29T07:59:30;10.70;98.00
16823;DHT22;8528;49.976;11.858;2024-03-29T08:01:56;10.90;97.50
16823;DHT22;8528;49.976;11.858;2024-03-29T08:04:23;11.10;96.30
16823;DHT22;8528;49.976;11.858;2024-03-29T08:06:52;11.30;96.20
16823;DHT22;8528;49.976;11.858;2024-03-29T08:09:17;11.20;94.60
16823;DHT22;8528;49.976;11.858;2024-03-29T08:11:43;10.90;96.30
16823;DHT22;8528;49.976;11.858;2024-03-29T08:14:09;11.00;96.20
16823;DHT22;8528;49.976;11.858;2024-03-29T08:16:35;11.40;95.60
16823;DHT22;8528;49.976;11.858;2024-03-29T08:19:01;11.70;94.10
16823;DHT22;8528;49.976;11.858;2024-03-29T08:21:27;11.90;94.00
16823;DHT22;8528;49.976;11.858;2024-03-29T08:23:53;12.60;91.40
16823;DHT22;8528;49.976;11.858;2024-03-29T08:26:21;13.30;90.00
16823;DHT22;8528;49.976;11.858;2024-03-29T08:28:47;13.70;86.20
16823;DHT22;8528;49.976;11.858;2024-03-29T08:31:12;14.30;82.00
16823;DHT22;8528;49.976;11.858;2024-03-29T08:33:38;14.60;79.10
16823;DHT22;8528;49.976;11.858;2024-03-29T08:36:06;15.00;79.50
16823;DHT22;8528;49.976;11.858;2024-03-29T08:38:32;16.20;74.90
16823;DHT22;8528;49.976;11.858;2024-03-29T08:40:58;17.00;69.30
16823;DHT22;8528;49.976;11.858;2024-03-29T08:43:24;17.60;64.20
16823;DHT22;8528;49.976;11.858;2024-03-29T08:45:50;17.20;61.70
16823;DHT22;8528;49.976;11.858;2024-03-29T08:48:16;16.80;65.50
16823;DHT22;8528;49.976;11.858;2024-03-29T08:50:42;17.00;63.30
16823;DHT22;8528;49.976;11.858;2024-03-29T08:53:08;17.10;64.40
16823;DHT22;8528;49.976;11.858;2024-03-29T08:55:35;17.40;59.70
16823;DHT22;8528;49.976;11.858;2024-03-29T08:58:02;17.60;60.10
16823;DHT22;8528;49.976;11.858;2024-03-29T09:00:29;17.30;59.80
16823;DHT22;8528;49.976;11.858;2024-03-29T09:02:56;16.40;60.30
16823;DHT22;8528;49.976;11.858;2024-03-29T09:05:22;15.80;63.40
16823;DHT22;8528;49.976;11.858;2024-03-29T09:07:49;15.20;64.00
16823;DHT22;8528;49.976;11.858;2024-03-29T09:10:16;15.20;65.20
16823;DHT22;8528;49.976;11.858;2024-03-29T09:12:42;15.30;65.40
16823;DHT22;8528;49.976;11.858;2024-03-29T09:15:08;15.20;64.60
16823;DHT22;8528;49.976;11.858;2024-03-29T09:17:46;14.80;68.80
16823;DHT22;8528;49.976;11.858;2024-03-29T09:20:12;14.70;66.30
16823;DHT22;8528;49.976;11.858;2024-03-29T09:22:39;14.10;67.80
16823;DHT22;8528;49.976;11.858;2024-03-29T09:25:05;13.70;70.00
16823;DHT22;8528;49.976;11.858;2024-03-29T09:27:31;13.30;71.80
16823;DHT22;8528;49.976;11.858;2024-03-29T09:30:05;12.90;71.00
16823;DHT22;8528;49.976;11.858;2024-03-29T09:32:32;12.50;73.60
16823;DHT22;8528;49.976;11.858;2024-03-29T09:34:58;12.20;72.80
16823;DHT22;8528;49.976;11.858;2024-03-29T09:37:26;11.80;75.30
16823;DHT22;8528;49.976;11.858;2024-03-29T09:39:51;11.60;76.20
16823;DHT22;8528;49.976;11.858;2024-03-29T09:42:19;11.60;77.10
16823;DHT22;8528;49.976;11.858;2024-03-29T09:44:47;11.40;77.80
16823;DHT22;8528;49.976;11.858;2024-03-29T09:47:17;11.30;77.40
16823;DHT22;8528;49.976;11.858;2024-03-29T09:49:44;11.30;78.90
16823;DHT22;8528;49.976;11.858;2024-03-29T09:52:13;11.20;79.30
16823;DHT22;8528;49.976;11.858;2024-03-29T09:54:40;11.10;80.40
16823;DHT22;8528;49.976;11.858;2024-03-29T09:57:06;11.00;81.40
16823;DHT22;8528;49.976;11.858;2024-03-29T09:59:33;10.90;81.30
16823;DHT22;8528;49.976;11.858;2024-03-29T10:02:04;10.80;82.70
16823;DHT22;8528;49.976;11.858;2024-03-29T10:04:33;10.70;84.20
16823;DHT22;8528;49.976;11.858;2024-03-29T10:07:00;10.40;89.10
16823;DHT22;8528;49.976;11.858;2024-03-29T10:09:26;10.00;90.80
16823;DHT22;8528;49.976;11.858;2024-03-29T10:11:55;9.70;92.20
16823;DHT22;8528;49.976;11.858;2024-03-29T10:14:21;9.60;95.00
16823;DHT22;8528;49.976;11.858;2024-03-29T10:16:51;9.30;99.90
16823;DHT22;8528;49.976;11.858;2024-03-29T10:19:17;8.90;99.90
16823;DHT22;8528;49.976;11.858;2024-03-29T10:21:43;8.50;99.90
16823;DHT22;8528;49.976;11.858;2024-03-29T10:24:13;8.20;99.90
16823;DHT22;8528;49.976;11.858;2024-03-29T10:26:41;7.90;99.90
16823;DHT22;8528;49.976;11.858;2024-03-29T10:29:08;7.80;99.90
16823;DHT22;8528;49.976;11.858;2024-03-29T10:31:37;7.60;99.90
16823;DHT22;8528;49.976;11.858;2024-03-29T10:34:04;7.50;99.90
16823;DHT22;8528;49.976;11.858;2024-03-29T10:36:34;7.50;99.90
16823;DHT22;8528;49.976;11.858;2024-03-29T10:39:11;7.50;99.90
16823;DHT22;8528;49.976;11.858;2024-03-29T10:41:41;7.50;99.90
16823;DHT22;8528;49.976;11.858;2024-03-29T10:44:11;7.50;99.90
16823;DHT22;8528;49.976;11.858;2024-03-29T10:46:41;7.50;99.90
16823;DHT22;8528;49.976;11.858;2024-03-29T10:49:10;7.50;99.90
16823;DHT22;8528;49.976;11.858;2024-03-29T10:51:40;7.50;99.90
16823;DHT22;8528;49.976;11.858;2024-03-29T10:54:11;7.50;99.90
16823;DHT22;8528;49.976;11.858;2024-03-29T10:56:38;7.50;99.90
16823;DHT22;8528;49.976;11.858;2024-03-29T10:59:22;7.50;99.90
16823;DHT22;8528;49.976;11.858;2024-03-29T11:01:58;7.50;99.90
16823;DHT22;8528;49.976;11.858;2024-03-29T11:04:33;7.50;99.90
16823;DHT22;8528;49.976;11.858;2024-03-29T11:07:03;7.50;99.90
16823;DHT22;8528;49.976;11.858;2024-03-29T11:09:31;7.50;99.90
16823;DHT22;8528;49.976;11.858;2024-03-29T11:12:01;7.60;99.90
16823;DHT22;8528;49.976;11.858;2024-03-29T11:14:35;7.60;99.90
16823;DHT22;8528;49.976;11.858;2024-03-29T11:17:03;7.80;99.90
16823;DHT22;8528;49.976;11.858;2024-03-29T11:19:30;7.90;99.90
16823;DHT22;8528;49.976;11.858;2024-03-29T11:21:56;8.00;99.90
16823;DHT22;8528;49.976;11.858;2024-03-29T11:24:26;8.00;99.90
16823;DHT22;8528;49.976;11.858;2024-03-29T11:26:54;8.10;99.90
16823;DHT22;8528;49.976;11.858;2024-03-29T11:29:21;8.20;99.90
16823;DHT22;8528;49.976;11.858;2024-03-29T11:31:47;8.20;99.90
16823;DHT22;8528;49.976;11.858;2024-03-29T11:34:19;8.30;99.90
16823;DHT22;8528;49.976;11.858;2024-03-29T11:36:46;8.40;99.90
16823;DHT22;8528;49.976;11.858;2024-03-29T11:39:21;8.50;99.90
16823;DHT22;8528;49.976;11.858;2024-03-29T11:41:50;8.70;99.90
16823;DHT22;8528;49.976;11.858;2024-03-29T11:44:17;8.80;99.90
16823;DHT22;8528;49.976;11.858;2024-03-29T11:46:43;8.90;99.90
16823;DHT22;8528;49.976;11.858;2024-03-29T11:49:12;9.10;99.90
16823;DHT22;8528;49.976;11.858;2024-03-29T11:51:40;9.20;99.90
16823;DHT22;8528;49.976;11.858;2024-03-29T11:54:06;9.40;99.90
16823;DHT22;8528;49.976;11.858;2024-03-29T11:56:33;9.50;99.90
16823;DHT22;8528;49.976;11.858;2024-03-29T11:58:58;9.60;99.90
16823;DHT22;8528;49.976;11.858;2024-03-29T12:01:27;9.80;99.90
16823;DHT22;8528;49.976;11.858;2024-03-29T12:03:55;10.00;99.90
16823;DHT22;8528;49.976;11.858;2024-03-29T12:06:21;10.10;99.90
16823;DHT22;8528;49.976;11.858;2024-03-29T12:08:48;10.20;99.90
16823;DHT22;8528;49.976;11.858;2024-03-29T12:11:14;10.00;99.90
16823;DHT22;8528;49.976;11.858;2024-03-29T12:13:41;9.90;99.90
16823;DHT22;8528;49.976;11.858;2024-03-29T12:16:07;9.70;99.90
16823;DHT22;8528;49.976;11.858;2024-03-29T12:18:34;9.70;99.90
16823;DHT22;8528;49.976;11.858;2024-03-29T12:21:02;9.60;99.90
16823;DHT22;8528;49.976;11.858;2024-03-29T12:23:29;9.50;99.90
16823;DHT22;8528;49.976;11.858;2024-03-29T12:25:56;9.60;99.90
16823;DHT22;8528;49.976;11.858;2024-03-29T12:28:24;9.70;99.90
16823;DHT22;8528;49.976;11.858;2024-03-29T12:30:50;9.90;99.90
16823;DHT22;8528;49.976;11.858;2024-03-29T12:33:19;10.00;99.90
16823;DHT22;8528;49.976;11.858;2024-03-29T12:35:50;10.10;99.90
16823;DHT22;8528;49.976;11.858;2024-03-29T12:38:20;10.40;99.90
16823;DHT22;8528;49.976;11.858;2024-03-29T12:40:47;10.70;99.90
16823;DHT22;8528;49.976;11.858;2024-03-29T12:43:15;11.00;99.90
16823;DHT22;8528;49.976;11.858;2024-03-29T12:45:45;11.20;99.90
16823;DHT22;8528;49.976;11.858;2024-03-29T12:48:18;11.40;99.90
16823;DHT22;8528;49.976;11.858;2024-03-29T12:50:49;11.70;99.90
16823;DHT22;8528;49.976;11.858;2024-03-29T12:53:16;12.10;99.90
16823;DHT22;8528;49.976;11.858;2024-03-29T12:55:43;12.50;99.90
16823;DHT22;8528;49.976;11.858;2024-03-29T12:58:16;12.50;99.90
16823;DHT22;8528;49.976;11.858;2024-03-29T13:00:43;12.40;99.90
16823;DHT22;8528;49.976;11.858;2024-03-29T13:03:09;12.20;99.90
16823;DHT22;8528;49.976;11.858;2024-03-29T13:05:36;12.20;99.90
16823;DHT22;8528;49.976;11.858;2024-03-29T13:08:11;12.20;99.90
16823;DHT22;8528;49.976;11.858;2024-03-29T13:10:40;12.30;99.90
16823;DHT22;8528;49.976;11.858;2024-03-29T13:13:06;13.00;99.90
16823;DHT22;8528;49.976;11.858;2024-03-29T13:15:34;14.30;99.90
16823;DHT22;8528;49.976;11.858;2024-03-29T13:18:03;15.70;99.90
16823;DHT22;8528;49.976;11.858;2024-03-29T13:20:31;16.80;99.90
16823;DHT22;8528;49.976;11.858;2024-03-29T13:22:58;17.20;99.90
16823;DHT22;8528;49.976;11.858;2024-03-29T13:25:25;17.30;98.40
16823;DHT22;8528;49.976;11.858;2024-03-29T13:27:53;17.30;97.80
16823;DHT22;8528;49.976;11.858;2024-03-29T13:30:21;17.30;96.20
16823;DHT22;8528;49.976;11.858;2024-03-29T13:32:48;17.10;96.30
16823;DHT22;8528;49.976;11.858;2024-03-29T13:35:14;16.70;96.80
16823;DHT22;8528;49.976;11.858;2024-03-29T13:37:45;16.30;97.10
16823;DHT22;8528;49.976;11.858;2024-03-29T13:40:20;16.80;96.90
16823;DHT22;8528;49.976;11.858;2024-03-29T13:42:47;16.80;95.80
16823;DHT22;8528;49.976;11.858;2024-03-29T13:45:14;16.10;97.20
16823;DHT22;8528;49.976;11.858;2024-03-29T13:47:42;15.60;98.90
16823;DHT22;8528;49.976;11.858;2024-03-29T13:50:09;15.20;99.90
16823;DHT22;8528;49.976;11.858;2024-03-29T13:52:35;14.80;99.90
16823;DHT22;8528;49.976;11.858;2024-03-29T13:55:02;14.70;99.90
16823;DHT22;8528;49.976;11.858;2024-03-29T13:57:29;14.80;99.90
16823;DHT22;8528;49.976;11.858;2024-03-29T13:59:55;15.00;99.90
16823;DHT22;8528;49.976;11.858;2024-03-29T14:02:21;15.00;99.90
16823;DHT22;8528;49.976;11.858;2024-03-29T14:04:48;15.10;99.90
16823;DHT22;8528;49.976;11.858;2024-03-29T14:07:15;15.20;99.90
16823;DHT22;8528;49.976;11.858;2024-03-29T14:09:44;15.20;99.90
16823;DHT22;8528;49.976;11.858;2024-03-29T14:12:10;15.10;99.90
16823;DHT22;8528;49.976;11.858;2024-03-29T14:14:36;14.90;99.90
16823;DHT22;8528;49.976;11.858;2024-03-29T14:17:03;14.80;99.90
16823;DHT22;8528;49.976;11.858;2024-03-29T14:19:33;14.70;99.90
16823;DHT22;8528;49.976;11.858;2024-03-29T14:22:03;14.70;99.90
16823;DHT22;8528;49.976;11.858;2024-03-29T14:24:30;14.70;99.90
16823;DHT22;8528;49.976;11.858;2024-03-29T14:26:59;15.00;99.90
16823;DHT22;8528;49.976;11.858;2024-03-29T14:29:25;15.10;99.90
16823;DHT22;8528;49.976;11.858;2024-03-29T14:31:51;15.20;99.90
16823;DHT22;8528;49.976;11.858;2024-03-29T14:34:21;15.30;99.90
16823;DHT22;8528;49.976;11.858;2024-03-29T14:36:48;15.30;99.90
16823;DHT22;8528;49.976;11.858;2024-03-29T14:39:14;15.20;99.90
16823;DHT22;8528;49.976;11.858;2024-03-29T14:41:41;15.10;99.90
16823;DHT22;8528;49.976;11.858;2024-03-29T14:44:07;15.20;99.90
16823;DHT22;8528;49.976;11.858;2024-03-29T14:46:34;15.30;99.90
16823;DHT22;8528;49.976;11.858;2024-03-29T14:49:03;15.40;99.90
16823;DHT22;8528;49.976;11.858;2024-03-29T14:51:33;15.50;99.90
16823;DHT22;8528;49.976;11.858;2024-03-29T14:53:59;15.80;99.90
16823;DHT22;8528;49.976;11.858;2024-03-29T14:56:27;16.00;99.90
16823;DHT22;8528;49.976;11.858;2024-03-29T14:58:57;15.90;99.90
16823;DHT22;8528;49.976;11.858;2024-03-29T15:01:23;15.70;99.90
16823;DHT22;8528;49.976;11.858;2024-03-29T15:03:51;15.50;99.90
16823;DHT22;8528;49.976;11.858;2024-03-29T15:06:18;15.40;99.90
16823;DHT22;8528;49.976;11.858;2024-03-29T15:08:44;15.40;99.90
16823;DHT22;8528;49.976;11.858;2024-03-29T15:11:10;15.20;99.90
16823;DHT22;8528;49.976;11.858;2024-03-29T15:13:35;15.20;99.90
16823;DHT22;8528;49.976;11.858;2024-03-29T15:16:02;15.20;99.90
16823;DHT22;8528;49.976;11.858;2024-03-29T15:18:28;15.20;99.90
16823;DHT22;8528;49.976;11.858;2024-03-29T15:20:59;15.10;99.90
16823;DHT22;8528;49.976;11.858;2024-03-29T15:23:26;15.20;99.90
16823;DHT22;8528;49.976;11.858;2024-03-29T15:25:57;15.30;99.90
16823;DHT22;8528;49.976;11.858;2024-03-29T15:28:25;15.20;99.90
16823;DHT22;8528;49.976;11.858;2024-03-29T15:31:11;15.10;99.90
16823;DHT22;8528;49.976;11.858;2024-03-29T15:33:40;14.90;99.90
16823;DHT22;8528;49.976;11.858;2024-03-29T15:36:07;14.70;99.90
16823;DHT22;8528;49.976;11.858;2024-03-29T15:38:36;14.60;99.90
16823;DHT22;8528;49.976;11.858;2024-03-29T15:41:02;14.50;99.90
16823;DHT22;8528;49.976;11.858;2024-03-29T15:43:31;14.30;99.90